createdAt,value
2022-12-03T00:00:14.286Z,35.63
2022-12-03T00:02:41.224Z,35.43
2022-12-03T00:05:08.160Z,35.30
2022-12-03T00:07:35.030Z,35.26
2022-12-03T00:10:01.815Z,35.13
2022-12-03T00:12:28.562Z,35.94
2022-12-03T00:14:55.577Z,37.91
2022-12-03T00:17:22.515Z,38.13
2022-12-03T00:19:49.240Z,40.38
2022-12-03T00:22:15.990Z,38.89
2022-12-03T00:24:42.703Z,37.83
2022-12-03T00:27:09.423Z,36.86
2022-12-03T00:29:36.253Z,36.49
2022-12-03T00:32:02.978Z,36.27
2022-12-03T00:34:29.711Z,35.99
2022-12-03T00:36:56.447Z,36.10
2022-12-03T00:39:23.208Z,35.82
2022-12-03T00:41:49.977Z,35.63
2022-12-03T00:44:16.715Z,35.76
2022-12-03T00:46:43.551Z,35.52
2022-12-03T00:49:10.371Z,35.16
2022-12-03T00:51:37.135Z,35.44
2022-12-03T00:54:03.859Z,35.26
2022-12-03T00:56:30.630Z,35.25
2022-12-03T00:58:57.384Z,36.43
2022-12-03T01:01:24.169Z,36.97
2022-12-03T01:03:51.017Z,38.42
2022-12-03T01:06:17.780Z,38.70
2022-12-03T01:08:44.514Z,37.76
2022-12-03T01:11:31.316Z,37.36
2022-12-03T01:13:58.088Z,36.49
2022-12-03T01:16:24.980Z,36.39
2022-12-03T01:18:52.762Z,36.22
2022-12-03T01:21:19.554Z,36.08
2022-12-03T01:23:46.274Z,35.81
2022-12-03T01:26:13.101Z,35.60
2022-12-03T01:28:41.789Z,35.48
2022-12-03T01:31:27.191Z,35.46
2022-12-03T01:33:53.965Z,35.54
2022-12-03T01:36:20.704Z,35.12
2022-12-03T01:38:48.646Z,36.03
2022-12-03T01:41:15.444Z,36.78
2022-12-03T01:43:42.198Z,37.72
2022-12-03T01:46:08.967Z,38.45
2022-12-03T01:48:35.830Z,38.20
2022-12-03T01:51:02.564Z,37.42
2022-12-03T01:53:29.316Z,37.06
2022-12-03T01:55:56.051Z,36.61
2022-12-03T01:58:22.977Z,36.39
2022-12-03T02:00:49.727Z,36.12
2022-12-03T02:03:16.450Z,35.83
2022-12-03T02:05:43.177Z,35.78
2022-12-03T02:08:10.012Z,35.46
2022-12-03T02:10:36.797Z,35.44
2022-12-03T02:13:03.555Z,35.48
2022-12-03T02:15:30.334Z,35.22
2022-12-03T02:17:57.591Z,35.22
2022-12-03T02:20:24.377Z,36.60
2022-12-03T02:22:51.127Z,37.40
2022-12-03T02:25:17.857Z,40.18
2022-12-03T02:27:44.631Z,39.28
2022-12-03T02:30:11.391Z,37.80
2022-12-03T02:32:38.112Z,36.90
2022-12-03T02:35:04.832Z,36.71
2022-12-03T02:37:31.580Z,36.19
2022-12-03T02:39:58.305Z,36.06
2022-12-03T02:42:37.069Z,35.75
2022-12-03T02:45:05.635Z,35.88
2022-12-03T02:47:32.696Z,35.60
2022-12-03T02:49:59.817Z,35.60
2022-12-03T02:52:27.128Z,35.59
2022-12-03T02:54:54.074Z,35.46
2022-12-03T02:57:20.982Z,35.37
2022-12-03T02:59:47.864Z,35.14
2022-12-03T03:02:14.873Z,35.00
2022-12-03T03:04:41.696Z,35.40
2022-12-03T03:07:08.447Z,37.31
2022-12-03T03:09:35.231Z,37.45
2022-12-03T03:12:02.058Z,40.77
2022-12-03T03:14:28.786Z,39.06
2022-12-03T03:16:56.085Z,37.66
2022-12-03T03:19:23.054Z,36.76
2022-12-03T03:21:49.766Z,36.39
2022-12-03T03:24:16.492Z,36.15
2022-12-03T03:26:43.263Z,35.89
2022-12-03T03:29:09.995Z,35.84
2022-12-03T03:31:36.767Z,35.48
2022-12-03T03:34:03.499Z,35.47
2022-12-03T03:36:30.227Z,35.61
2022-12-03T03:38:57.027Z,35.14
2022-12-03T03:41:23.808Z,35.14
2022-12-03T03:43:50.547Z,35.20
2022-12-03T03:46:17.508Z,35.04
2022-12-03T03:48:44.328Z,34.88
2022-12-03T03:51:11.153Z,36.41
2022-12-03T03:53:37.893Z,36.88
2022-12-03T03:56:04.708Z,39.75
2022-12-03T03:58:31.437Z,39.39
2022-12-03T04:03:25.095Z,37.01
2022-12-03T04:05:51.961Z,36.41
2022-12-03T04:08:18.816Z,36.13
2022-12-03T04:11:04.458Z,35.86
2022-12-03T04:13:31.192Z,35.63
2022-12-03T04:15:57.969Z,35.50
2022-12-03T04:18:42.850Z,35.27
2022-12-03T04:21:28.432Z,35.32
2022-12-03T04:23:55.220Z,35.22
2022-12-03T04:26:40.455Z,35.14
2022-12-03T04:29:07.245Z,35.19
2022-12-03T04:31:52.594Z,34.94
2022-12-03T04:34:37.738Z,35.23
2022-12-03T04:37:04.463Z,36.17
2022-12-03T04:39:31.204Z,36.25
2022-12-03T04:41:58.036Z,38.40
2022-12-03T04:44:35.557Z,38.09
2022-12-03T04:47:02.367Z,37.22
2022-12-03T04:49:29.116Z,36.68
2022-12-03T04:51:56.031Z,36.52
2022-12-03T04:54:22.841Z,36.05
2022-12-03T04:56:49.681Z,35.75
2022-12-03T04:59:16.860Z,35.42
2022-12-03T05:01:43.742Z,35.33
2022-12-03T05:04:10.503Z,35.47
2022-12-03T05:06:37.223Z,35.06
2022-12-03T05:09:03.958Z,35.25
2022-12-03T05:11:30.691Z,35.18
2022-12-03T05:13:57.457Z,34.87
2022-12-03T05:16:24.274Z,34.82
2022-12-03T05:18:51.011Z,36.24
2022-12-03T05:21:17.779Z,36.99
2022-12-03T05:23:44.571Z,39.25
2022-12-03T05:26:11.358Z,39.59
2022-12-03T05:28:38.121Z,37.90
2022-12-03T05:31:05.164Z,36.75
2022-12-03T05:33:32.022Z,36.27
2022-12-03T05:35:58.809Z,35.95
2022-12-03T05:38:25.576Z,35.61
2022-12-03T05:40:52.353Z,35.66
2022-12-03T05:43:19.092Z,35.36
2022-12-03T05:45:45.961Z,35.18
2022-12-03T05:48:12.775Z,35.24
2022-12-03T05:50:39.553Z,35.13
2022-12-03T05:53:06.316Z,35.16
2022-12-03T05:55:33.062Z,34.94
2022-12-03T05:57:59.796Z,34.86
2022-12-03T06:00:26.763Z,36.03
2022-12-03T06:02:53.610Z,36.64
2022-12-03T06:05:20.468Z,38.63
2022-12-03T06:07:47.300Z,39.09
2022-12-03T06:10:14.198Z,38.75
2022-12-03T06:12:40.936Z,37.68
2022-12-03T06:15:07.718Z,36.87
2022-12-03T06:17:34.596Z,36.20
2022-12-03T06:20:01.325Z,35.72
2022-12-03T06:22:28.113Z,35.70
2022-12-03T06:24:55.058Z,35.53
2022-12-03T06:27:22.002Z,35.11
2022-12-03T06:29:48.882Z,35.10
2022-12-03T06:32:15.620Z,35.00
2022-12-03T06:34:42.337Z,34.99
2022-12-03T06:37:09.085Z,34.94
2022-12-03T06:39:35.857Z,34.84
2022-12-03T06:42:02.581Z,34.98
2022-12-03T06:44:29.394Z,34.84
2022-12-03T06:46:56.264Z,35.83
2022-12-03T06:49:23.058Z,36.28
2022-12-03T06:51:49.831Z,38.30
2022-12-03T06:54:16.595Z,38.51
2022-12-03T06:56:45.399Z,37.87
2022-12-03T06:59:12.432Z,36.87
2022-12-03T07:01:39.204Z,36.44
2022-12-03T07:04:05.955Z,35.70
2022-12-03T07:06:32.710Z,35.81
2022-12-03T07:08:59.436Z,35.37
2022-12-03T07:11:32.182Z,35.29
2022-12-03T07:14:04.672Z,35.16
2022-12-03T07:16:32.430Z,34.94
2022-12-03T07:18:59.256Z,35.16
2022-12-03T07:21:25.989Z,34.81
2022-12-03T07:23:52.714Z,34.81
2022-12-03T07:26:19.524Z,34.65
2022-12-03T07:28:48.081Z,35.09
2022-12-03T07:31:14.902Z,36.08
2022-12-03T07:33:42.144Z,36.29
2022-12-03T07:36:08.930Z,38.18
2022-12-03T07:38:35.678Z,38.66
2022-12-03T07:41:02.452Z,37.51
2022-12-03T07:43:29.206Z,36.69
2022-12-03T07:45:55.925Z,36.34
2022-12-03T07:48:22.693Z,36.03
2022-12-03T07:50:49.496Z,35.62
2022-12-03T07:53:16.301Z,35.46
2022-12-03T07:55:43.049Z,35.37
2022-12-03T07:58:09.812Z,35.04
2022-12-03T08:00:36.564Z,35.05
2022-12-03T08:03:03.339Z,35.13
2022-12-03T08:05:30.142Z,34.92
2022-12-03T08:07:56.985Z,34.71
2022-12-03T08:10:23.763Z,34.66
2022-12-03T08:12:50.596Z,34.66
2022-12-03T08:15:17.401Z,36.32
2022-12-03T08:17:44.223Z,36.51
2022-12-03T08:20:10.943Z,38.60
2022-12-03T08:22:37.670Z,38.24
2022-12-03T08:25:04.415Z,37.20
2022-12-03T08:27:31.135Z,36.53
2022-12-03T08:29:57.864Z,36.18
2022-12-03T08:32:24.640Z,35.81
2022-12-03T08:34:51.688Z,35.57
2022-12-03T08:37:18.622Z,35.31
2022-12-03T08:39:45.413Z,35.22
2022-12-03T08:42:30.951Z,35.13
2022-12-03T08:44:57.702Z,34.95
2022-12-03T08:47:24.445Z,34.74
2022-12-03T08:49:51.294Z,34.65
2022-12-03T08:52:18.089Z,34.92
2022-12-03T08:54:44.806Z,34.65
2022-12-03T08:57:11.564Z,36.10
2022-12-03T08:59:41.450Z,36.00
2022-12-03T09:02:10.885Z,37.53
2022-12-03T09:04:37.786Z,37.54
2022-12-03T09:07:04.598Z,37.08
2022-12-03T09:09:31.390Z,36.64
2022-12-03T09:11:58.193Z,36.24
2022-12-03T09:14:25.085Z,35.92
2022-12-03T09:16:55.264Z,35.71
2022-12-03T09:19:22.506Z,35.54
2022-12-03T09:21:49.237Z,35.14
2022-12-03T09:24:15.965Z,35.16
2022-12-03T09:26:42.757Z,34.69
2022-12-03T09:29:12.483Z,34.94
2022-12-03T09:31:39.565Z,34.79
2022-12-03T09:34:06.343Z,36.23
2022-12-03T09:36:33.087Z,36.31
2022-12-03T09:38:59.818Z,37.46
2022-12-03T09:41:26.562Z,38.10
2022-12-03T09:44:13.966Z,37.69
2022-12-03T09:46:40.070Z,36.87
2022-12-03T09:49:12.277Z,36.62
2022-12-03T09:51:42.257Z,36.09
2022-12-03T09:54:09.190Z,35.84
2022-12-03T09:56:35.925Z,35.56
2022-12-03T09:59:02.643Z,35.40
2022-12-03T10:01:30.448Z,35.08
2022-12-03T10:03:58.457Z,35.02
2022-12-03T10:06:25.316Z,34.99
2022-12-03T10:08:52.120Z,34.88
2022-12-03T10:11:18.848Z,35.16
2022-12-03T10:13:45.781Z,34.70
2022-12-03T10:16:13.127Z,35.46
2022-12-03T10:18:41.867Z,36.22
2022-12-03T10:21:08.693Z,37.28
2022-12-03T10:23:35.437Z,37.89
2022-12-03T10:26:04.984Z,37.64
2022-12-03T10:28:31.768Z,37.31
2022-12-03T10:30:58.581Z,36.46
2022-12-03T10:33:25.353Z,36.25
2022-12-03T10:35:52.096Z,36.02
2022-12-03T10:38:19.272Z,35.91
2022-12-03T10:40:46.031Z,35.47
2022-12-03T10:43:12.778Z,35.28
2022-12-03T10:45:39.523Z,35.00
2022-12-03T10:48:06.329Z,35.14
2022-12-03T10:50:33.071Z,35.02
2022-12-03T10:52:59.807Z,34.98
2022-12-03T10:55:26.775Z,36.40
2022-12-03T10:57:53.545Z,36.59
2022-12-03T11:00:20.392Z,38.17
2022-12-03T11:02:51.684Z,37.75
2022-12-03T11:05:21.530Z,37.19
2022-12-03T11:07:48.326Z,36.64
2022-12-03T11:10:15.103Z,36.12
2022-12-03T11:12:41.855Z,35.84
2022-12-03T11:15:08.653Z,35.81
2022-12-03T11:17:35.374Z,35.44
2022-12-03T11:20:02.173Z,35.39
2022-12-03T11:22:28.964Z,35.17
2022-12-03T11:24:55.883Z,35.10
2022-12-03T11:27:22.820Z,35.23
2022-12-03T11:29:49.613Z,34.99
2022-12-03T11:32:16.408Z,34.95
2022-12-03T11:34:43.420Z,34.82
2022-12-03T11:37:10.253Z,36.45
2022-12-03T11:39:37.023Z,36.29
2022-12-03T11:42:03.773Z,37.76
2022-12-03T11:44:30.654Z,37.73
2022-12-03T11:46:57.594Z,37.19
2022-12-03T11:49:24.400Z,36.72
2022-12-03T11:51:51.124Z,36.37
2022-12-03T11:54:17.862Z,36.21
2022-12-03T11:56:44.608Z,35.69
2022-12-03T11:59:11.342Z,35.78
2022-12-03T12:01:39.080Z,35.37
2022-12-03T12:04:06.106Z,35.13
2022-12-03T12:06:32.869Z,35.28
2022-12-03T12:08:59.666Z,34.95
2022-12-03T12:11:26.419Z,34.90
2022-12-03T12:13:54.443Z,36.25
2022-12-03T12:16:21.360Z,36.48
2022-12-03T12:18:55.058Z,38.01
2022-12-03T12:21:22.212Z,38.41
2022-12-03T12:23:48.944Z,37.82
2022-12-03T12:26:15.703Z,36.95
2022-12-03T12:28:42.438Z,36.55
2022-12-03T12:31:09.231Z,36.25
2022-12-03T12:33:36.019Z,35.92
2022-12-03T12:36:02.750Z,35.90
2022-12-03T12:38:29.533Z,35.49
2022-12-03T12:40:56.278Z,35.41
2022-12-03T12:43:24.291Z,35.30
2022-12-03T12:45:51.558Z,35.22
2022-12-03T12:48:18.315Z,35.19
2022-12-03T12:50:45.057Z,35.18
2022-12-03T12:53:11.784Z,35.75
2022-12-03T12:55:38.552Z,36.46
2022-12-03T12:58:05.284Z,36.71
2022-12-03T13:00:32.103Z,37.76
2022-12-03T13:02:58.898Z,38.11
2022-12-03T13:05:27.734Z,37.62
2022-12-03T13:07:54.565Z,36.97
2022-12-03T13:10:21.529Z,36.56
2022-12-03T13:12:48.335Z,36.31
2022-12-03T13:15:15.073Z,36.08
2022-12-03T13:17:41.821Z,35.87
2022-12-03T13:20:08.613Z,35.41
2022-12-03T13:22:35.417Z,35.42
2022-12-03T13:25:02.147Z,35.35
2022-12-03T13:27:32.560Z,35.16
2022-12-03T13:29:59.277Z,35.06
2022-12-03T13:32:27.451Z,35.35
2022-12-03T13:35:09.355Z,34.96
2022-12-03T13:37:36.088Z,36.45
2022-12-03T13:40:02.815Z,36.26
2022-12-03T13:42:39.024Z,38.08
2022-12-03T13:45:05.774Z,38.10
2022-12-03T13:47:32.494Z,37.29
2022-12-03T13:49:59.778Z,36.82
2022-12-03T13:52:26.570Z,36.48
2022-12-03T13:54:53.303Z,36.21
2022-12-03T13:57:20.122Z,35.94
2022-12-03T13:59:46.853Z,35.76
2022-12-03T14:02:13.710Z,35.89
2022-12-03T14:04:40.853Z,35.39
2022-12-03T14:07:07.611Z,35.36
2022-12-03T14:09:34.364Z,35.08
2022-12-03T14:12:19.715Z,34.81
2022-12-03T14:14:46.522Z,35.44
2022-12-03T14:17:13.339Z,36.10
2022-12-03T14:19:40.151Z,36.51
2022-12-03T14:22:09.127Z,37.67
2022-12-03T14:24:35.858Z,37.62
2022-12-03T14:27:02.607Z,37.05
2022-12-03T14:29:29.358Z,36.64
2022-12-03T14:31:56.146Z,36.48
2022-12-03T14:34:22.961Z,35.88
2022-12-03T14:36:49.741Z,35.94
2022-12-03T14:39:16.542Z,35.68
2022-12-03T14:42:02.164Z,35.30
2022-12-03T14:44:28.896Z,35.50
2022-12-03T14:46:57.524Z,35.21
2022-12-03T14:49:24.447Z,35.47
2022-12-03T14:51:51.215Z,35.04
2022-12-03T14:54:18.158Z,36.44
2022-12-03T14:56:44.932Z,36.11
2022-12-03T14:59:11.767Z,38.00
2022-12-03T15:01:38.540Z,37.75
2022-12-03T15:04:05.354Z,36.99
2022-12-03T15:06:32.080Z,36.90
2022-12-03T15:08:58.799Z,36.45
2022-12-03T15:11:25.548Z,36.24
2022-12-03T15:13:52.268Z,35.98
2022-12-03T15:16:19.014Z,35.53
2022-12-03T15:18:45.887Z,35.72
2022-12-03T15:21:12.650Z,35.57
2022-12-03T15:23:39.364Z,35.32
2022-12-03T15:26:06.173Z,35.34
2022-12-03T15:28:32.955Z,35.08
2022-12-03T15:30:59.779Z,36.08
2022-12-03T15:33:26.523Z,36.63
2022-12-03T15:35:53.252Z,37.89
2022-12-03T15:38:19.986Z,38.33
2022-12-03T15:40:46.801Z,37.42
2022-12-03T15:43:13.643Z,37.17
2022-12-03T15:45:40.535Z,36.93
2022-12-03T15:48:07.382Z,36.42
2022-12-03T15:50:39.710Z,35.98
2022-12-03T15:53:07.053Z,35.86
2022-12-03T15:55:33.809Z,35.54
2022-12-03T15:58:00.545Z,35.41
2022-12-03T16:00:27.301Z,35.34
2022-12-03T16:02:54.157Z,35.38
2022-12-03T16:05:21.011Z,35.21
2022-12-03T16:07:47.787Z,35.09
2022-12-03T16:10:16.602Z,34.90
2022-12-03T16:12:43.342Z,35.66
2022-12-03T16:15:10.088Z,36.80
2022-12-03T16:17:36.864Z,37.43
2022-12-03T16:20:03.764Z,38.17
2022-12-03T16:22:30.516Z,37.58
2022-12-03T16:24:57.277Z,36.92
2022-12-03T16:27:25.841Z,36.59
2022-12-03T16:29:53.528Z,36.48
2022-12-03T16:32:20.525Z,36.25
2022-12-03T16:34:47.252Z,36.04
2022-12-03T16:37:14.186Z,35.69
2022-12-03T16:39:41.028Z,35.14
2022-12-03T16:42:12.171Z,35.30
2022-12-03T16:44:57.960Z,35.34
2022-12-03T16:47:29.349Z,35.05
2022-12-03T16:49:59.031Z,34.82
2022-12-03T16:52:25.763Z,35.76
2022-12-03T16:54:52.494Z,37.09
2022-12-03T16:57:19.262Z,37.63
2022-12-03T16:59:46.008Z,38.97
2022-12-03T17:02:12.886Z,37.93
2022-12-03T17:04:39.858Z,37.09
2022-12-03T17:07:06.599Z,36.58
2022-12-03T17:09:33.331Z,35.86
2022-12-03T17:12:00.093Z,35.79
2022-12-03T17:14:32.862Z,35.76
2022-12-03T17:17:00.136Z,35.56
2022-12-03T17:19:26.927Z,35.29
2022-12-03T17:21:54.236Z,35.29
2022-12-03T17:24:21.440Z,35.25
2022-12-03T17:26:48.307Z,35.11
2022-12-03T17:29:15.116Z,34.91
2022-12-03T17:31:42.739Z,35.76
2022-12-03T17:34:09.781Z,36.37
2022-12-03T17:36:36.515Z,37.27
2022-12-03T17:39:03.272Z,38.39
2022-12-03T17:41:30.019Z,37.74
2022-12-03T17:43:56.759Z,36.99
2022-12-03T17:46:23.569Z,36.76
2022-12-03T17:48:50.377Z,36.52
2022-12-03T17:51:19.093Z,36.30
2022-12-03T17:53:45.821Z,35.52
2022-12-03T17:56:12.654Z,35.61
2022-12-03T17:58:39.395Z,35.58
2022-12-03T18:01:08.430Z,35.28
2022-12-03T18:03:35.218Z,35.13
2022-12-03T18:06:02.041Z,35.26
2022-12-03T18:08:28.821Z,35.04
2022-12-03T18:10:55.573Z,34.82
2022-12-03T18:13:22.313Z,35.42
2022-12-03T18:15:49.084Z,36.53
2022-12-03T18:18:15.843Z,37.30
2022-12-03T18:20:42.661Z,38.31
2022-12-03T18:23:09.428Z,37.42
2022-12-03T18:25:36.186Z,37.00
2022-12-03T18:28:02.905Z,36.80
2022-12-03T18:30:29.656Z,36.29
2022-12-03T18:32:56.435Z,35.82
2022-12-03T18:35:23.229Z,35.69
2022-12-03T18:37:50.069Z,35.44
2022-12-03T18:40:17.313Z,35.41
2022-12-03T18:42:44.094Z,35.26
2022-12-03T18:45:10.842Z,35.17
2022-12-03T18:47:37.705Z,35.20
2022-12-03T18:50:04.536Z,34.95
2022-12-03T18:52:31.288Z,34.68
2022-12-03T18:54:58.068Z,36.67
2022-12-03T18:57:24.832Z,36.72
2022-12-03T18:59:51.826Z,39.33
2022-12-03T19:02:45.999Z,38.92
2022-12-03T19:05:06.183Z,37.60
2022-12-03T19:07:33.098Z,36.75
2022-12-03T19:09:59.906Z,36.37
2022-12-03T19:12:26.694Z,35.97
2022-12-03T19:14:53.424Z,35.71
2022-12-03T19:17:21.281Z,35.41
2022-12-03T19:19:48.046Z,35.54
2022-12-03T19:22:14.784Z,35.24
2022-12-03T19:24:41.554Z,35.28
2022-12-03T19:27:08.279Z,34.91
2022-12-03T19:29:35.255Z,34.87
2022-12-03T19:32:02.023Z,36.00
2022-12-03T19:34:28.798Z,36.65
2022-12-03T19:36:55.728Z,37.83
2022-12-03T19:39:22.465Z,38.68
2022-12-03T19:41:49.258Z,38.00
2022-12-03T19:44:16.048Z,37.20
2022-12-03T19:46:42.780Z,36.72
2022-12-03T19:49:09.536Z,36.19
2022-12-03T19:51:36.405Z,35.92
2022-12-03T19:54:03.159Z,35.95
2022-12-03T19:56:33.103Z,35.43
2022-12-03T19:58:59.855Z,35.18
2022-12-03T20:01:26.689Z,35.24
2022-12-03T20:03:53.588Z,34.99
2022-12-03T20:06:20.399Z,34.90
2022-12-03T20:08:47.181Z,34.82
2022-12-03T20:11:13.935Z,34.80
2022-12-03T20:13:40.679Z,36.31
2022-12-03T20:16:08.535Z,36.52
2022-12-03T20:18:35.294Z,37.84
2022-12-03T20:21:02.050Z,37.78
2022-12-03T20:23:28.772Z,37.54
2022-12-03T20:25:55.512Z,36.88
2022-12-03T20:28:22.258Z,36.41
2022-12-03T20:30:49.004Z,36.00
2022-12-03T20:33:15.830Z,36.00
2022-12-03T20:35:42.578Z,35.73
2022-12-03T20:38:09.323Z,35.34
2022-12-03T20:40:36.323Z,35.29
2022-12-03T20:43:03.076Z,35.45
2022-12-03T20:45:29.889Z,34.88
2022-12-03T20:47:56.680Z,35.20
2022-12-03T20:50:23.487Z,34.93
2022-12-03T20:53:16.143Z,34.77
2022-12-03T20:55:36.963Z,35.63
2022-12-03T20:58:03.679Z,36.35
2022-12-03T21:00:30.399Z,37.26
2022-12-03T21:02:57.244Z,37.82
2022-12-03T21:05:23.998Z,37.64
2022-12-03T21:07:52.245Z,37.01
2022-12-03T21:10:37.093Z,36.73
2022-12-03T21:13:03.854Z,35.92
2022-12-03T21:15:30.628Z,35.81
2022-12-03T21:17:57.468Z,35.72
2022-12-03T21:20:24.273Z,35.41
2022-12-03T21:22:51.606Z,35.43
2022-12-03T21:25:18.342Z,35.43
2022-12-03T21:27:45.132Z,35.10
2022-12-03T21:30:11.867Z,34.80
2022-12-03T21:32:38.619Z,35.11
2022-12-03T21:35:05.344Z,34.85
2022-12-03T21:37:32.077Z,36.23
2022-12-03T21:39:58.817Z,36.47
2022-12-03T21:42:35.593Z,38.07
2022-12-03T21:45:03.766Z,38.06
2022-12-03T21:47:36.668Z,37.20
2022-12-03T21:50:04.129Z,36.56
2022-12-03T21:52:30.891Z,36.51
2022-12-03T21:54:57.645Z,35.74
2022-12-03T21:57:24.386Z,35.82
2022-12-03T21:59:51.126Z,35.64
2022-12-03T22:02:17.894Z,35.37
2022-12-03T22:04:44.657Z,35.38
2022-12-03T22:07:11.383Z,35.17
2022-12-03T22:09:38.121Z,34.96
2022-12-03T22:12:04.861Z,35.18
2022-12-03T22:14:31.619Z,34.79
2022-12-03T22:16:58.385Z,34.50
2022-12-03T22:19:25.132Z,36.45
2022-12-03T22:21:51.864Z,36.22
2022-12-03T22:24:19.287Z,38.01
2022-12-03T22:26:46.331Z,37.83
2022-12-03T22:29:13.144Z,37.19
2022-12-03T22:31:39.903Z,36.55
2022-12-03T22:34:06.671Z,36.48
2022-12-03T22:36:33.412Z,36.03
2022-12-03T22:39:00.167Z,35.76
2022-12-03T22:41:26.920Z,35.38
2022-12-03T22:43:53.662Z,35.47
2022-12-03T22:46:20.449Z,35.47
2022-12-03T22:48:47.224Z,35.02
2022-12-03T22:51:14.023Z,34.89
2022-12-03T22:53:40.781Z,34.79
2022-12-03T22:56:07.515Z,34.80
2022-12-03T22:58:34.275Z,34.69
2022-12-03T23:01:03.155Z,36.21
2022-12-03T23:03:30.247Z,36.09
2022-12-03T23:05:57.057Z,37.51
2022-12-03T23:08:23.777Z,37.44
2022-12-03T23:10:50.523Z,36.84
2022-12-03T23:13:17.264Z,36.41
2022-12-03T23:15:44.076Z,36.41
2022-12-03T23:18:10.859Z,35.92
2022-12-03T23:20:37.601Z,35.71
2022-12-03T23:23:04.323Z,35.26
2022-12-03T23:25:31.053Z,35.22
2022-12-03T23:27:57.920Z,35.15
2022-12-03T23:30:24.645Z,35.26
2022-12-03T23:32:51.392Z,34.63
2022-12-03T23:35:18.132Z,34.81
2022-12-03T23:37:44.876Z,34.71
2022-12-03T23:40:11.621Z,34.86
2022-12-03T23:42:38.344Z,35.42
2022-12-03T23:45:05.290Z,36.32
2022-12-03T23:47:32.064Z,36.79
2022-12-03T23:49:58.835Z,37.84
2022-12-03T23:52:25.603Z,37.38
2022-12-03T23:54:52.334Z,36.99
2022-12-03T23:57:19.201Z,36.38
2022-12-03T23:59:45.933Z,35.97
